sensor_id;sensor_type;location;lat;lon;timestamp;P1;durP1;ratioP1;P2;durP2;ratioP2
59474;SDS011;45288;51.136;16.928;2023-04-06T00:02:09;502.80;;;449.15;;
59474;SDS011;45288;51.136;16.928;2023-04-06T00:04:34;500.27;;;445.70;;
59474;SDS011;45288;51.136;16.928;2023-04-06T00:07:00;536.60;;;457.70;;
59474;SDS011;45288;51.136;16.928;2023-04-06T00:09:26;559.13;;;431.67;;
59474;SDS011;45288;51.136;16.928;2023-04-06T00:11:51;535.33;;;418.40;;
59474;SDS011;45288;51.136;16.928;2023-04-06T00:14:17;560.65;;;419.60;;
59474;SDS011;45288;51.136;16.928;2023-04-06T00:16:43;573.45;;;473.80;;
59474;SDS011;45288;51.136;16.928;2023-04-06T00:19:08;592.30;;;425.43;;
59474;SDS011;45288;51.136;16.928;2023-04-06T00:21:34;599.43;;;395.57;;
59474;SDS011;45288;51.136;16.928;2023-04-06T00:24:00;564.97;;;415.65;;
59474;SDS011;45288;51.136;16.928;2023-04-06T00:26:26;562.20;;;413.80;;
59474;SDS011;45288;51.136;16.928;2023-04-06T00:28:54;561.30;;;468.65;;
59474;SDS011;45288;51.136;16.928;2023-04-06T00:31:20;597.67;;;427.20;;
59474;SDS011;45288;51.136;16.928;2023-04-06T00:33:47;629.37;;;438.07;;
59474;SDS011;45288;51.136;16.928;2023-04-06T00:36:13;584.50;;;399.55;;
59474;SDS011;45288;51.136;16.928;2023-04-06T00:38:39;600.10;;;421.13;;
59474;SDS011;45288;51.136;16.928;2023-04-06T00:41:05;614.50;;;409.43;;
59474;SDS011;45288;51.136;16.928;2023-04-06T00:43:32;609.30;;;408.50;;
59474;SDS011;45288;51.136;16.928;2023-04-06T00:45:57;566.07;;;398.27;;
59474;SDS011;45288;51.136;16.928;2023-04-06T00:48:23;594.37;;;412.80;;
59474;SDS011;45288;51.136;16.928;2023-04-06T00:50:49;565.53;;;402.95;;
59474;SDS011;45288;51.136;16.928;2023-04-06T00:53:15;610.80;;;394.27;;
59474;SDS011;45288;51.136;16.928;2023-04-06T00:55:40;578.78;;;381.73;;
59474;SDS011;45288;51.136;16.928;2023-04-06T00:58:06;598.63;;;416.20;;
59474;SDS011;45288;51.136;16.928;2023-04-06T01:00:40;595.15;;;393.42;;
59474;SDS011;45288;51.136;16.928;2023-04-06T01:03:08;616.55;;;385.45;;
59474;SDS011;45288;51.136;16.928;2023-04-06T01:05:39;537.28;;;386.30;;
59474;SDS011;45288;51.136;16.928;2023-04-06T01:08:11;539.65;;;379.27;;
59474;SDS011;45288;51.136;16.928;2023-04-06T01:10:37;563.42;;;382.65;;
59474;SDS011;45288;51.136;16.928;2023-04-06T01:13:26;596.72;;;410.75;;
59474;SDS011;45288;51.136;16.928;2023-04-06T01:15:55;602.22;;;420.90;;
59474;SDS011;45288;51.136;16.928;2023-04-06T01:18:30;651.90;;;436.47;;
59474;SDS011;45288;51.136;16.928;2023-04-06T01:21:09;620.28;;;403.17;;
59474;SDS011;45288;51.136;16.928;2023-04-06T01:23:44;666.15;;;400.58;;
59474;SDS011;45288;51.136;16.928;2023-04-06T01:26:11;673.43;;;443.67;;
59474;SDS011;45288;51.136;16.928;2023-04-06T01:28:37;616.25;;;358.48;;
59474;SDS011;45288;51.136;16.928;2023-04-06T01:31:10;564.30;;;395.88;;
59474;SDS011;45288;51.136;16.928;2023-04-06T01:33:44;666.35;;;453.45;;
59474;SDS011;45288;51.136;16.928;2023-04-06T01:36:14;655.30;;;440.48;;
59474;SDS011;45288;51.136;16.928;2023-04-06T01:38:40;550.15;;;388.25;;
59474;SDS011;45288;51.136;16.928;2023-04-06T01:41:08;697.22;;;459.25;;
59474;SDS011;45288;51.136;16.928;2023-04-06T01:43:44;643.53;;;405.52;;
59474;SDS011;45288;51.136;16.928;2023-04-06T01:46:10;456.60;;;371.80;;
59474;SDS011;45288;51.136;16.928;2023-04-06T01:48:40;646.47;;;374.77;;
59474;SDS011;45288;51.136;16.928;2023-04-06T01:51:35;537.05;;;390.30;;
59474;SDS011;45288;51.136;16.928;2023-04-06T01:54:03;591.13;;;376.05;;
59474;SDS011;45288;51.136;16.928;2023-04-06T01:56:49;476.42;;;404.13;;
59474;SDS011;45288;51.136;16.928;2023-04-06T01:59:30;595.08;;;446.38;;
59474;SDS011;45288;51.136;16.928;2023-04-06T02:01:58;461.30;;;412.05;;
59474;SDS011;45288;51.136;16.928;2023-04-06T02:04:26;523.40;;;416.10;;
59474;SDS011;45288;51.136;16.928;2023-04-06T02:07:00;522.75;;;407.17;;
59474;SDS011;45288;51.136;16.928;2023-04-06T02:09:28;515.28;;;422.67;;
59474;SDS011;45288;51.136;16.928;2023-04-06T02:11:55;480.02;;;413.23;;
59474;SDS011;45288;51.136;16.928;2023-04-06T02:14:21;545.20;;;437.52;;
59474;SDS011;45288;51.136;16.928;2023-04-06T02:17:11;507.67;;;443.83;;
59474;SDS011;45288;51.136;16.928;2023-04-06T02:19:37;562.27;;;420.67;;
59474;SDS011;45288;51.136;16.928;2023-04-06T02:22:03;534.47;;;417.83;;
59474;SDS011;45288;51.136;16.928;2023-04-06T02:24:28;535.38;;;387.15;;
59474;SDS011;45288;51.136;16.928;2023-04-06T02:26:54;414.38;;;376.42;;
59474;SDS011;45288;51.136;16.928;2023-04-06T02:29:20;540.67;;;429.80;;
59474;SDS011;45288;51.136;16.928;2023-04-06T02:31:47;583.15;;;431.67;;
59474;SDS011;45288;51.136;16.928;2023-04-06T02:34:13;475.08;;;423.27;;
59474;SDS011;45288;51.136;16.928;2023-04-06T02:36:46;555.55;;;445.48;;
59474;SDS011;45288;51.136;16.928;2023-04-06T02:39:13;536.17;;;427.40;;
59474;SDS011;45288;51.136;16.928;2023-04-06T02:41:39;503.38;;;417.20;;
59474;SDS011;45288;51.136;16.928;2023-04-06T02:44:07;570.90;;;473.52;;
59474;SDS011;45288;51.136;16.928;2023-04-06T02:46:38;587.72;;;403.42;;
59474;SDS011;45288;51.136;16.928;2023-04-06T02:49:03;609.03;;;400.88;;
59474;SDS011;45288;51.136;16.928;2023-04-06T02:51:32;559.13;;;374.83;;
59474;SDS011;45288;51.136;16.928;2023-04-06T02:54:10;658.83;;;453.00;;
59474;SDS011;45288;51.136;16.928;2023-04-06T02:56:36;556.83;;;372.73;;
59474;SDS011;45288;51.136;16.928;2023-04-06T02:59:02;552.63;;;370.65;;
59474;SDS011;45288;51.136;16.928;2023-04-06T03:01:31;629.92;;;410.05;;
59474;SDS011;45288;51.136;16.928;2023-04-06T03:04:01;647.03;;;426.23;;
59474;SDS011;45288;51.136;16.928;2023-04-06T03:06:28;418.98;;;371.88;;
59474;SDS011;45288;51.136;16.928;2023-04-06T03:08:58;575.55;;;420.95;;
59474;SDS011;45288;51.136;16.928;2023-04-06T03:11:25;590.60;;;427.00;;
59474;SDS011;45288;51.136;16.928;2023-04-06T03:13:52;666.13;;;434.20;;
59474;SDS011;45288;51.136;16.928;2023-04-06T03:16:18;510.17;;;375.48;;
59474;SDS011;45288;51.136;16.928;2023-04-06T03:18:44;611.40;;;413.83;;
59474;SDS011;45288;51.136;16.928;2023-04-06T03:21:13;595.72;;;415.08;;
59474;SDS011;45288;51.136;16.928;2023-04-06T03:23:46;619.50;;;400.42;;
59474;SDS011;45288;51.136;16.928;2023-04-06T03:26:12;654.97;;;394.67;;
59474;SDS011;45288;51.136;16.928;2023-04-06T03:28:38;678.78;;;445.63;;
59474;SDS011;45288;51.136;16.928;2023-04-06T03:31:05;483.45;;;354.80;;
59474;SDS011;45288;51.136;16.928;2023-04-06T03:33:49;556.80;;;387.30;;
59474;SDS011;45288;51.136;16.928;2023-04-06T03:36:29;683.85;;;393.92;;
59474;SDS011;45288;51.136;16.928;2023-04-06T03:38:56;597.90;;;361.63;;
59474;SDS011;45288;51.136;16.928;2023-04-06T03:41:22;580.13;;;379.17;;
59474;SDS011;45288;51.136;16.928;2023-04-06T03:43:56;643.33;;;422.42;;
59474;SDS011;45288;51.136;16.928;2023-04-06T03:46:21;660.57;;;385.80;;
59474;SDS011;45288;51.136;16.928;2023-04-06T03:48:51;659.55;;;358.92;;
59474;SDS011;45288;51.136;16.928;2023-04-06T03:51:19;672.67;;;369.10;;
59474;SDS011;45288;51.136;16.928;2023-04-06T03:53:47;662.95;;;340.08;;
59474;SDS011;45288;51.136;16.928;2023-04-06T03:56:12;607.97;;;313.73;;
59474;SDS011;45288;51.136;16.928;2023-04-06T03:58:38;599.83;;;386.42;;
59474;SDS011;45288;51.136;16.928;2023-04-06T04:01:04;580.45;;;364.10;;
59474;SDS011;45288;51.136;16.928;2023-04-06T04:03:29;553.88;;;354.50;;
59474;SDS011;45288;51.136;16.928;2023-04-06T04:05:55;548.57;;;376.03;;
59474;SDS011;45288;51.136;16.928;2023-04-06T04:08:23;427.27;;;373.58;;
59474;SDS011;45288;51.136;16.928;2023-04-06T04:10:48;334.63;;;305.65;;
59474;SDS011;45288;51.136;16.928;2023-04-06T04:13:14;422.03;;;383.53;;
59474;SDS011;45288;51.136;16.928;2023-04-06T04:15:43;420.40;;;346.15;;
59474;SDS011;45288;51.136;16.928;2023-04-06T04:18:08;501.30;;;330.33;;
59474;SDS011;45288;51.136;16.928;2023-04-06T04:20:34;556.55;;;339.55;;
59474;SDS011;45288;51.136;16.928;2023-04-06T04:23:00;494.00;;;327.08;;
59474;SDS011;45288;51.136;16.928;2023-04-06T04:25:29;510.85;;;324.80;;
59474;SDS011;45288;51.136;16.928;2023-04-06T04:27:55;542.97;;;299.67;;
59474;SDS011;45288;51.136;16.928;2023-04-06T04:30:21;540.25;;;319.08;;
59474;SDS011;45288;51.136;16.928;2023-04-06T04:32:47;530.33;;;329.63;;
59474;SDS011;45288;51.136;16.928;2023-04-06T04:35:15;543.03;;;317.25;;
59474;SDS011;45288;51.136;16.928;2023-04-06T04:37:42;537.95;;;304.92;;
59474;SDS011;45288;51.136;16.928;2023-04-06T04:40:09;488.55;;;313.25;;
59474;SDS011;45288;51.136;16.928;2023-04-06T04:42:52;447.40;;;306.02;;
59474;SDS011;45288;51.136;16.928;2023-04-06T04:45:29;463.92;;;316.60;;
59474;SDS011;45288;51.136;16.928;2023-04-06T04:47:56;474.23;;;316.30;;
59474;SDS011;45288;51.136;16.928;2023-04-06T04:50:25;513.63;;;302.77;;
59474;SDS011;45288;51.136;16.928;2023-04-06T04:52:55;544.10;;;288.20;;
59474;SDS011;45288;51.136;16.928;2023-04-06T04:55:23;507.67;;;360.98;;
59474;SDS011;45288;51.136;16.928;2023-04-06T04:57:53;488.27;;;355.70;;
59474;SDS011;45288;51.136;16.928;2023-04-06T05:00:24;521.85;;;368.08;;
59474;SDS011;45288;51.136;16.928;2023-04-06T05:02:55;581.10;;;336.05;;
59474;SDS011;45288;51.136;16.928;2023-04-06T05:05:25;577.47;;;336.70;;
59474;SDS011;45288;51.136;16.928;2023-04-06T05:07:51;466.63;;;363.35;;
59474;SDS011;45288;51.136;16.928;2023-04-06T05:10:26;578.40;;;333.02;;
59474;SDS011;45288;51.136;16.928;2023-04-06T05:12:57;555.38;;;357.13;;
59474;SDS011;45288;51.136;16.928;2023-04-06T05:15:23;539.20;;;352.97;;
59474;SDS011;45288;51.136;16.928;2023-04-06T05:17:52;593.15;;;331.92;;
59474;SDS011;45288;51.136;16.928;2023-04-06T05:20:23;569.13;;;330.02;;
59474;SDS011;45288;51.136;16.928;2023-04-06T05:22:50;579.55;;;331.25;;
59474;SDS011;45288;51.136;16.928;2023-04-06T05:25:16;563.93;;;321.93;;
59474;SDS011;45288;51.136;16.928;2023-04-06T05:27:43;507.50;;;352.10;;
59474;SDS011;45288;51.136;16.928;2023-04-06T05:30:24;462.35;;;356.40;;
59474;SDS011;45288;51.136;16.928;2023-04-06T05:32:51;441.45;;;386.02;;
59474;SDS011;45288;51.136;16.928;2023-04-06T05:35:17;486.63;;;441.40;;
59474;SDS011;45288;51.136;16.928;2023-04-06T05:37:46;477.15;;;426.45;;
59474;SDS011;45288;51.136;16.928;2023-04-06T05:40:12;461.38;;;385.30;;
59474;SDS011;45288;51.136;16.928;2023-04-06T05:42:39;472.13;;;372.50;;
59474;SDS011;45288;51.136;16.928;2023-04-06T05:45:06;475.55;;;423.67;;
59474;SDS011;45288;51.136;16.928;2023-04-06T05:47:32;478.45;;;426.25;;
59474;SDS011;45288;51.136;16.928;2023-04-06T05:50:05;514.38;;;460.20;;
59474;SDS011;45288;51.136;16.928;2023-04-06T05:52:35;498.67;;;445.42;;
59474;SDS011;45288;51.136;16.928;2023-04-06T05:55:00;542.37;;;485.00;;
59474;SDS011;45288;51.136;16.928;2023-04-06T05:57:26;531.00;;;476.43;;
59474;SDS011;45288;51.136;16.928;2023-04-06T05:59:53;546.97;;;475.88;;
59474;SDS011;45288;51.136;16.928;2023-04-06T06:02:21;536.22;;;479.50;;
59474;SDS011;45288;51.136;16.928;2023-04-06T06:04:50;469.40;;;427.20;;
59474;SDS011;45288;51.136;16.928;2023-04-06T06:07:17;418.40;;;379.88;;
59474;SDS011;45288;51.136;16.928;2023-04-06T06:09:49;246.63;;;221.02;;
59474;SDS011;45288;51.136;16.928;2023-04-06T06:12:29;307.55;;;279.27;;
59474;SDS011;45288;51.136;16.928;2023-04-06T06:14:56;244.87;;;220.53;;
59474;SDS011;45288;51.136;16.928;2023-04-06T06:17:24;306.05;;;276.90;;
59474;SDS011;45288;51.136;16.928;2023-04-06T06:19:50;275.50;;;247.55;;
59474;SDS011;45288;51.136;16.928;2023-04-06T06:22:16;327.75;;;295.88;;
59474;SDS011;45288;51.136;16.928;2023-04-06T06:24:44;237.53;;;212.90;;
59474;SDS011;45288;51.136;16.928;2023-04-06T06:27:11;271.42;;;245.27;;
59474;SDS011;45288;51.136;16.928;2023-04-06T06:29:37;519.50;;;475.77;;
59474;SDS011;45288;51.136;16.928;2023-04-06T06:32:03;491.52;;;450.27;;
59474;SDS011;45288;51.136;16.928;2023-04-06T06:34:29;482.10;;;440.53;;
59474;SDS011;45288;51.136;16.928;2023-04-06T06:36:57;494.63;;;454.40;;
59474;SDS011;45288;51.136;16.928;2023-04-06T06:39:23;528.10;;;485.40;;
59474;SDS011;45288;51.136;16.928;2023-04-06T06:41:50;471.75;;;432.27;;
59474;SDS011;45288;51.136;16.928;2023-04-06T06:44:16;440.75;;;403.98;;
59474;SDS011;45288;51.136;16.928;2023-04-06T06:46:42;478.38;;;439.13;;
59474;SDS011;45288;51.136;16.928;2023-04-06T06:49:08;340.67;;;310.63;;
59474;SDS011;45288;51.136;16.928;2023-04-06T06:51:35;283.67;;;257.05;;
59474;SDS011;45288;51.136;16.928;2023-04-06T06:54:01;289.17;;;258.55;;
59474;SDS011;45288;51.136;16.928;2023-04-06T06:56:26;414.50;;;375.77;;
59474;SDS011;45288;51.136;16.928;2023-04-06T06:58:53;476.67;;;434.23;;
59474;SDS011;45288;51.136;16.928;2023-04-06T07:01:20;384.05;;;351.25;;
59474;SDS011;45288;51.136;16.928;2023-04-06T07:03:46;441.25;;;402.73;;
59474;SDS011;45288;51.136;16.928;2023-04-06T07:06:11;472.73;;;433.50;;
59474;SDS011;45288;51.136;16.928;2023-04-06T07:08:39;427.45;;;389.38;;
59474;SDS011;45288;51.136;16.928;2023-04-06T07:11:05;573.70;;;525.28;;
59474;SDS011;45288;51.136;16.928;2023-04-06T07:13:30;700.43;;;645.30;;
59474;SDS011;45288;51.136;16.928;2023-04-06T07:15:58;697.50;;;625.92;;
59474;SDS011;45288;51.136;16.928;2023-04-06T07:18:25;724.65;;;522.47;;
59474;SDS011;45288;51.136;16.928;2023-04-06T07:20:50;694.92;;;444.38;;
59474;SDS011;45288;51.136;16.928;2023-04-06T07:23:16;706.25;;;457.92;;
59474;SDS011;45288;51.136;16.928;2023-04-06T07:25:42;677.90;;;412.20;;
59474;SDS011;45288;51.136;16.928;2023-04-06T07:28:09;689.88;;;427.02;;
59474;SDS011;45288;51.136;16.928;2023-04-06T07:30:35;691.65;;;451.65;;
59474;SDS011;45288;51.136;16.928;2023-04-06T07:33:02;687.60;;;457.50;;
59474;SDS011;45288;51.136;16.928;2023-04-06T07:35:28;714.78;;;514.90;;
59474;SDS011;45288;51.136;16.928;2023-04-06T07:37:56;718.33;;;556.55;;
59474;SDS011;45288;51.136;16.928;2023-04-06T07:40:22;732.80;;;569.30;;
59474;SDS011;45288;51.136;16.928;2023-04-06T07:42:48;728.38;;;566.35;;
59474;SDS011;45288;51.136;16.928;2023-04-06T07:45:14;724.80;;;557.27;;
59474;SDS011;45288;51.136;16.928;2023-04-06T07:47:41;722.03;;;570.70;;
59474;SDS011;45288;51.136;16.928;2023-04-06T07:50:07;727.42;;;587.45;;
59474;SDS011;45288;51.136;16.928;2023-04-06T07:52:33;719.07;;;586.97;;
59474;SDS011;45288;51.136;16.928;2023-04-06T07:54:59;719.00;;;605.30;;
59474;SDS011;45288;51.136;16.928;2023-04-06T07:57:25;710.78;;;607.50;;
59474;SDS011;45288;51.136;16.928;2023-04-06T07:59:51;706.53;;;583.60;;
59474;SDS011;45288;51.136;16.928;2023-04-06T08:02:17;715.00;;;590.00;;
59474;SDS011;45288;51.136;16.928;2023-04-06T08:04:43;726.42;;;593.55;;
59474;SDS011;45288;51.136;16.928;2023-04-06T08:07:08;725.33;;;591.95;;
59474;SDS011;45288;51.136;16.928;2023-04-06T08:09:34;725.25;;;622.28;;
59474;SDS011;45288;51.136;16.928;2023-04-06T08:12:00;716.55;;;637.60;;
59474;SDS011;45288;51.136;16.928;2023-04-06T08:14:26;733.05;;;612.42;;
59474;SDS011;45288;51.136;16.928;2023-04-06T08:16:51;715.80;;;622.67;;
59474;SDS011;45288;51.136;16.928;2023-04-06T08:19:17;716.50;;;616.53;;
59474;SDS011;45288;51.136;16.928;2023-04-06T08:21:44;729.80;;;605.00;;
59474;SDS011;45288;51.136;16.928;2023-04-06T08:24:11;722.90;;;598.45;;
59474;SDS011;45288;51.136;16.928;2023-04-06T08:26:37;712.83;;;588.20;;
59474;SDS011;45288;51.136;16.928;2023-04-06T08:29:03;718.47;;;590.50;;
59474;SDS011;45288;51.136;16.928;2023-04-06T08:31:29;704.13;;;591.50;;
59474;SDS011;45288;51.136;16.928;2023-04-06T08:33:55;702.95;;;588.17;;
59474;SDS011;45288;51.136;16.928;2023-04-06T08:36:21;722.60;;;617.13;;
59474;SDS011;45288;51.136;16.928;2023-04-06T08:38:48;718.10;;;641.67;;
59474;SDS011;45288;51.136;16.928;2023-04-06T08:41:14;720.65;;;643.65;;
59474;SDS011;45288;51.136;16.928;2023-04-06T08:43:57;732.30;;;669.57;;
59474;SDS011;45288;51.136;16.928;2023-04-06T08:46:23;735.25;;;676.15;;
59474;SDS011;45288;51.136;16.928;2023-04-06T08:48:56;734.78;;;675.33;;
59474;SDS011;45288;51.136;16.928;2023-04-06T08:51:25;754.92;;;675.63;;
59474;SDS011;45288;51.136;16.928;2023-04-06T08:53:54;764.20;;;680.55;;
59474;SDS011;45288;51.136;16.928;2023-04-06T08:56:21;746.30;;;646.25;;
59474;SDS011;45288;51.136;16.928;2023-04-06T08:58:47;759.95;;;681.08;;
59474;SDS011;45288;51.136;16.928;2023-04-06T09:01:13;741.65;;;660.88;;
59474;SDS011;45288;51.136;16.928;2023-04-06T09:03:40;764.65;;;705.22;;
59474;SDS011;45288;51.136;16.928;2023-04-06T09:06:07;629.70;;;582.00;;
59474;SDS011;45288;51.136;16.928;2023-04-06T09:08:34;778.37;;;700.47;;
59474;SDS011;45288;51.136;16.928;2023-04-06T09:11:00;784.38;;;704.25;;
59474;SDS011;45288;51.136;16.928;2023-04-06T09:13:26;790.33;;;721.73;;
59474;SDS011;45288;51.136;16.928;2023-04-06T09:15:58;794.50;;;727.27;;
59474;SDS011;45288;51.136;16.928;2023-04-06T09:18:27;807.00;;;740.67;;
59474;SDS011;45288;51.136;16.928;2023-04-06T09:20:57;756.00;;;675.45;;
59474;SDS011;45288;51.136;16.928;2023-04-06T09:23:23;767.27;;;686.57;;
59474;SDS011;45288;51.136;16.928;2023-04-06T09:25:49;759.50;;;679.37;;
59474;SDS011;45288;51.136;16.928;2023-04-06T09:28:14;737.47;;;657.73;;
59474;SDS011;45288;51.136;16.928;2023-04-06T09:30:47;726.85;;;647.53;;
59474;SDS011;45288;51.136;16.928;2023-04-06T09:33:22;737.17;;;656.55;;
59474;SDS011;45288;51.136;16.928;2023-04-06T09:35:51;737.67;;;657.13;;
59474;SDS011;45288;51.136;16.928;2023-04-06T09:38:17;757.40;;;676.00;;
59474;SDS011;45288;51.136;16.928;2023-04-06T09:40:52;773.03;;;691.13;;
59474;SDS011;45288;51.136;16.928;2023-04-06T09:43:27;772.88;;;691.60;;
59474;SDS011;45288;51.136;16.928;2023-04-06T09:45:53;764.50;;;682.70;;
59474;SDS011;45288;51.136;16.928;2023-04-06T09:48:20;793.55;;;713.65;;
59474;SDS011;45288;51.136;16.928;2023-04-06T09:50:50;762.00;;;680.33;;
59474;SDS011;45288;51.136;16.928;2023-04-06T09:53:19;763.65;;;683.88;;
59474;SDS011;45288;51.136;16.928;2023-04-06T09:55:45;763.70;;;694.67;;
59474;SDS011;45288;51.136;16.928;2023-04-06T09:58:15;755.45;;;678.03;;
59474;SDS011;45288;51.136;16.928;2023-04-06T10:01:29;725.42;;;650.30;;
59474;SDS011;45288;51.136;16.928;2023-04-06T10:06:05;709.13;;;608.92;;
59474;SDS011;45288;51.136;16.928;2023-04-06T10:08:32;731.55;;;652.53;;
59474;SDS011;45288;51.136;16.928;2023-04-06T10:10:58;753.40;;;672.55;;
59474;SDS011;45288;51.136;16.928;2023-04-06T10:13:24;745.05;;;665.03;;
59474;SDS011;45288;51.136;16.928;2023-04-06T10:15:50;771.20;;;694.08;;
59474;SDS011;45288;51.136;16.928;2023-04-06T10:18:17;711.47;;;633.97;;
59474;SDS011;45288;51.136;16.928;2023-04-06T10:20:56;705.53;;;614.67;;
59474;SDS011;45288;51.136;16.928;2023-04-06T10:25:51;742.67;;;664.10;;
59474;SDS011;45288;51.136;16.928;2023-04-06T10:28:18;801.25;;;733.72;;
59474;SDS011;45288;51.136;16.928;2023-04-06T10:30:44;788.47;;;724.08;;
59474;SDS011;45288;51.136;16.928;2023-04-06T10:33:13;775.10;;;710.03;;
59474;SDS011;45288;51.136;16.928;2023-04-06T10:35:39;780.80;;;711.88;;
59474;SDS011;45288;51.136;16.928;2023-04-06T10:38:05;795.87;;;723.80;;
59474;SDS011;45288;51.136;16.928;2023-04-06T10:40:31;789.72;;;716.45;;
59474;SDS011;45288;51.136;16.928;2023-04-06T10:43:06;788.95;;;714.70;;
59474;SDS011;45288;51.136;16.928;2023-04-06T10:45:32;784.50;;;710.33;;
59474;SDS011;45288;51.136;16.928;2023-04-06T10:47:58;781.10;;;707.03;;
59474;SDS011;45288;51.136;16.928;2023-04-06T10:50:24;760.23;;;684.50;;
59474;SDS011;45288;51.136;16.928;2023-04-06T10:53:00;750.10;;;672.50;;
59474;SDS011;45288;51.136;16.928;2023-04-06T10:55:26;778.97;;;699.85;;
59474;SDS011;45288;51.136;16.928;2023-04-06T10:57:53;826.80;;;745.88;;
59474;SDS011;45288;51.136;16.928;2023-04-06T11:00:19;804.75;;;723.55;;
59474;SDS011;45288;51.136;16.928;2023-04-06T11:02:45;766.08;;;685.35;;
59474;SDS011;45288;51.136;16.928;2023-04-06T11:05:11;836.83;;;754.17;;
59474;SDS011;45288;51.136;16.928;2023-04-06T11:07:37;797.10;;;715.72;;
59474;SDS011;45288;51.136;16.928;2023-04-06T11:10:02;794.33;;;712.22;;
59474;SDS011;45288;51.136;16.928;2023-04-06T11:12:28;798.25;;;719.45;;
59474;SDS011;45288;51.136;16.928;2023-04-06T11:14:59;820.55;;;737.83;;
59474;SDS011;45288;51.136;16.928;2023-04-06T11:17:30;807.25;;;724.75;;
59474;SDS011;45288;51.136;16.928;2023-04-06T11:19:56;851.67;;;770.20;;
59474;SDS011;45288;51.136;16.928;2023-04-06T11:22:22;830.80;;;749.17;;
59474;SDS011;45288;51.136;16.928;2023-04-06T11:24:48;809.13;;;726.53;;
59474;SDS011;45288;51.136;16.928;2023-04-06T11:27:17;748.27;;;668.77;;
59474;SDS011;45288;51.136;16.928;2023-04-06T11:29:43;810.03;;;728.05;;
59474;SDS011;45288;51.136;16.928;2023-04-06T11:32:11;839.83;;;756.15;;
59474;SDS011;45288;51.136;16.928;2023-04-06T11:34:38;802.03;;;720.15;;
59474;SDS011;45288;51.136;16.928;2023-04-06T11:37:07;771.97;;;691.40;;
59474;SDS011;45288;51.136;16.928;2023-04-06T11:39:37;774.17;;;693.95;;
59474;SDS011;45288;51.136;16.928;2023-04-06T11:42:03;842.30;;;759.88;;
59474;SDS011;45288;51.136;16.928;2023-04-06T11:44:33;866.83;;;783.90;;
59474;SDS011;45288;51.136;16.928;2023-04-06T11:46:59;841.35;;;758.88;;
59474;SDS011;45288;51.136;16.928;2023-04-06T11:49:33;825.92;;;744.17;;
59474;SDS011;45288;51.136;16.928;2023-04-06T11:52:00;870.30;;;789.30;;
59474;SDS011;45288;51.136;16.928;2023-04-06T11:54:44;884.55;;;801.22;;
59474;SDS011;45288;51.136;16.928;2023-04-06T11:57:10;892.35;;;807.67;;
59474;SDS011;45288;51.136;16.928;2023-04-06T11:59:35;870.25;;;786.60;;
59474;SDS011;45288;51.136;16.928;2023-04-06T12:02:01;892.65;;;806.95;;
59474;SDS011;45288;51.136;16.928;2023-04-06T12:04:27;829.47;;;746.88;;
59474;SDS011;45288;51.136;16.928;2023-04-06T12:06:53;840.58;;;758.58;;
59474;SDS011;45288;51.136;16.928;2023-04-06T12:09:19;841.00;;;759.35;;
59474;SDS011;45288;51.136;16.928;2023-04-06T12:11:45;846.08;;;762.13;;
59474;SDS011;45288;51.136;16.928;2023-04-06T12:14:11;871.50;;;787.13;;
59474;SDS011;45288;51.136;16.928;2023-04-06T12:16:36;881.63;;;802.73;;
59474;SDS011;45288;51.136;16.928;2023-04-06T12:19:02;859.92;;;776.95;;
59474;SDS011;45288;51.136;16.928;2023-04-06T12:21:28;852.55;;;769.38;;
59474;SDS011;45288;51.136;16.928;2023-04-06T12:23:54;842.45;;;760.42;;
59474;SDS011;45288;51.136;16.928;2023-04-06T12:26:20;832.47;;;751.57;;
59474;SDS011;45288;51.136;16.928;2023-04-06T12:28:46;772.00;;;694.27;;
59474;SDS011;45288;51.136;16.928;2023-04-06T12:31:18;744.30;;;667.57;;
59474;SDS011;45288;51.136;16.928;2023-04-06T12:33:48;731.78;;;655.92;;
59474;SDS011;45288;51.136;16.928;2023-04-06T12:36:14;751.95;;;675.10;;
59474;SDS011;45288;51.136;16.928;2023-04-06T12:38:41;729.78;;;653.20;;
59474;SDS011;45288;51.136;16.928;2023-04-06T12:41:07;770.05;;;692.63;;
59474;SDS011;45288;51.136;16.928;2023-04-06T12:43:33;751.78;;;676.20;;
59474;SDS011;45288;51.136;16.928;2023-04-06T12:45:59;691.70;;;617.88;;
59474;SDS011;45288;51.136;16.928;2023-04-06T12:48:25;695.90;;;621.28;;
59474;SDS011;45288;51.136;16.928;2023-04-06T12:50:58;699.95;;;626.35;;
59474;SDS011;45288;51.136;16.928;2023-04-06T12:53:24;666.30;;;593.17;;
59474;SDS011;45288;51.136;16.928;2023-04-06T12:55:50;742.08;;;665.85;;
59474;SDS011;45288;51.136;16.928;2023-04-06T12:58:17;702.70;;;628.13;;
59474;SDS011;45288;51.136;16.928;2023-04-06T13:00:43;725.00;;;649.95;;
59474;SDS011;45288;51.136;16.928;2023-04-06T13:03:08;774.15;;;696.85;;
59474;SDS011;45288;51.136;16.928;2023-04-06T13:05:34;756.53;;;679.95;;
59474;SDS011;45288;51.136;16.928;2023-04-06T13:08:00;790.33;;;712.90;;
59474;SDS011;45288;51.136;16.928;2023-04-06T13:10:26;810.90;;;734.87;;
59474;SDS011;45288;51.136;16.928;2023-04-06T13:12:52;845.13;;;769.75;;
59474;SDS011;45288;51.136;16.928;2023-04-06T13:15:17;802.90;;;722.92;;
59474;SDS011;45288;51.136;16.928;2023-04-06T13:17:43;801.40;;;722.20;;
59474;SDS011;45288;51.136;16.928;2023-04-06T13:20:09;779.33;;;700.77;;
59474;SDS011;45288;51.136;16.928;2023-04-06T13:22:35;783.85;;;704.97;;
59474;SDS011;45288;51.136;16.928;2023-04-06T13:25:01;772.33;;;693.65;;
59474;SDS011;45288;51.136;16.928;2023-04-06T13:27:26;775.38;;;695.35;;
59474;SDS011;45288;51.136;16.928;2023-04-06T13:29:53;819.22;;;735.97;;
59474;SDS011;45288;51.136;16.928;2023-04-06T13:32:18;798.33;;;715.67;;
59474;SDS011;45288;51.136;16.928;2023-04-06T13:34:44;809.50;;;726.38;;
59474;SDS011;45288;51.136;16.928;2023-04-06T13:37:11;743.60;;;663.10;;
59474;SDS011;45288;51.136;16.928;2023-04-06T13:39:37;810.70;;;729.38;;
59474;SDS011;45288;51.136;16.928;2023-04-06T13:42:03;754.58;;;673.80;;
59474;SDS011;45288;51.136;16.928;2023-04-06T13:44:29;800.53;;;718.87;;
59474;SDS011;45288;51.136;16.928;2023-04-06T13:46:55;822.07;;;740.00;;
59474;SDS011;45288;51.136;16.928;2023-04-06T13:49:21;819.85;;;735.50;;
59474;SDS011;45288;51.136;16.928;2023-04-06T13:51:47;784.28;;;702.55;;
59474;SDS011;45288;51.136;16.928;2023-04-06T13:54:12;798.83;;;716.83;;